Anton, CO

3:40 PM MDT on July 24, 2014 (GMT -0600)
Cope, Colorado (KCOCOPE2) Elev 4423 ft | 39.67 °N, 102.85 °W | Change Station

Current weather conditions updated 47 seconds ago

Mostly Cloudy
Mostly Cloudy
94.1 °F
Feels Like 91 °F
N
1.7
Wind Variable Wind from SSW

Today is forecast to be Much Warmer than yesterday.

Today
High -- | Low -- °F
--% Chance of Precip.
Yesterday
High -- | Low -- °F
Precip. -- in
5:45 AM 8:13 PM
Waning Crescent, 4% visible
Pressure 29.74 in
Visibility 10.0 miles
Clouds Clear
Heat Index 91 °F
Dew Point 48 °F
Humidity 21%
Rainfall 0.00 in
Snow Depth Not available.
UV 10 out of 12
Pollen 7.30 out of 12
Air Quality Not available.
Flu Activity Not available.
METAR KAKO 242053Z AUTO 28008KT 10SM CLR 38/04 A2997 RMK AO2 SLP071 T03780044 56021

More Conditions Fewer Conditions

Pressure 29.74 in
Visibility 10.0 miles
Clouds Clear
Heat Index 91 °F
Dew Point 48 °F
Humidity 21%
Rainfall 0.00 in
Snow Depth Not available.
UV 10 out of 12
Pollen 7.30 out of 12
Air Quality Not available.
Flu Activity Not available.
METAR KAKO 242053Z AUTO 28008KT 10SM CLR 38/04 A2997 RMK AO2 SLP071 T03780044 56021

More Conditions Fewer Conditions

10-Day Weather Forecast

Almanac

Astronomy

Jul. 24, 2014 Rise Set
Actual Time 5:45 AM MDT 8:13 PM MDT
Civil Twilight 5:14 AM MDT 8:44 PM MDT
Nautical Twilight 4:35 AM MDT 9:22 PM MDT
Astronomical Twilight 3:53 AM MDT 10:05 PM MDT
Moon 3:54 AM MDT 6:30 PM MDT
Length of Visible Light 15h 30m
Length of Day
14h 28m
Tomorrow will be 1m 43s shorter.
Waning Crescent, 4% of the Moon is Illuminated
Today
Waning Crescent
Jul 26
New
Aug 3
First Quarter
Aug 10
Full
Aug 17
Last Quarter

Today's Extremes

State Highs State Lows

Community

WunderPhotos

Upload Photos

1,737,139 photos uploaded!

WunderBlogs® & News

Nearby

Snow Depth

Station Depth Elevation
Grizzly Peak 5 in 11100 ft
Lake Irene 2 in 10700 ft
Never Summer 0 in 10280 ft
Rough And Tumble 4 in 10360 ft
Rawah 21 in 9020 ft

Earthquake Activity

City Distance Mag. Time & Date
No recent earthquake activity has been reported nearby.
Minimum magnitude displayed is 2.5.

Coastal Water Temperatures

Place Temperature
No Stations Reporting

Nearby Weather Stations

Station Location Temp. Heat Index Dew Point Humidity Wind Precip. Elev Updated Type
Cope, Colorado, Cope, CO 94.1 °F 91 °F 48 °F 21% SSW  at  1.7 mph - / hr 4423 ft 3:40 PM MDT Normal

Show More Stations Show Fewer Stations